Time;durP1;ratioP1;P1;durP2;ratioP2;P2;SDS_P1;SDS_P2;PMS_P1;PMS_P2;Temp;Humidity;BMP_temperature;BMP_pressure;BME280_temperature;BME280_humidity;BME280_pressure;Samples;Min_cycle;Max_cycle;Signal;HPM_P1;HPM_P2
2021/01/04 00:01:37;;;;;;;8.63;2.30;;;;;;;3.20;83.59;102050.94;4960336;28;20069;-85
2021/01/04 00:04:22;;;;;;;5.47;2.15;;;;;;;3.23;83.80;102041.38;4936682;28;20480;-86
2021/01/04 00:07:26;;;;;;;8.90;2.50;;;;;;;3.27;83.50;102047.97;4966012;28;20061;-85
2021/01/04 00:10:14;;;;;;;13.73;2.70;;;;;;;3.32;83.97;102045.25;4937690;29;20122;-86
2021/01/04 00:13:01;;;;;;;6.95;2.30;;;;;;;3.36;83.54;102047.19;4953374;28;20134;-84
2021/01/04 00:15:44;;;;;;;6.78;2.83;;;;;;;3.36;83.93;102049.13;4941305;29;20121;-87
2021/01/04 00:18:36;;;;;;;11.20;3.08;;;;;;;3.37;83.92;102048.03;4926051;28;20094;-85
2021/01/04 00:21:11;;;;;;;5.53;3.30;;;;;;;3.37;83.75;102048.03;4913715;29;20054;-86
2021/01/04 00:23:42;;;;;;;8.43;2.72;;;;;;;3.38;83.81;102041.47;4925767;29;20078;-85
2021/01/04 00:26:15;;;;;;;8.35;1.77;;;;;;;3.43;83.65;102041.50;4925384;29;20094;-84
2021/01/04 00:28:43;;;;;;;;;;;;;;;3.45;83.24;102039.31;4942116;29;20071;-87
2021/01/04 00:31:15;;;;;;;3.90;1.70;;;;;;;3.48;83.21;102049.72;4942745;29;20359;-86
2021/01/04 00:33:46;;;;;;;4.97;1.33;;;;;;;3.50;83.31;102047.53;4925106;29;20047;-86
2021/01/04 00:36:23;;;;;;;5.82;1.92;;;;;;;3.49;83.42;102045.91;4955655;29;20484;-83
2021/01/04 00:39:15;;;;;;;7.18;2.20;;;;;;;3.51;83.31;102038.25;4937933;29;20070;-81
2021/01/04 00:42:03;;;;;;;7.05;1.77;;;;;;;3.54;83.33;102054.97;4940502;29;20035;-85
2021/01/04 00:44:48;;;;;;;5.55;1.42;;;;;;;3.59;83.20;102052.25;4957559;29;20126;-81
2021/01/04 00:47:31;;;;;;;8.70;2.47;;;;;;;3.59;83.20;102056.91;4945733;29;20089;-82
2021/01/04 00:50:07;;;;;;;3.80;1.60;;;;;;;3.58;83.37;102052.50;4956277;29;20051;-81
2021/01/04 00:52:43;;;;;;;11.07;1.30;;;;;;;3.52;83.07;102045.38;4955610;28;20122;-82
2021/01/04 00:55:28;;;;;;;3.53;1.60;;;;;;;3.45;83.49;102047.50;4954023;29;20043;-81
2021/01/04 00:58:09;;;;;;;4.43;1.67;;;;;;;3.37;83.32;102048.84;4938865;29;20051;-81
2021/01/04 01:00:43;;;;;;;4.70;1.98;;;;;;;3.32;83.57;102057.03;4957585;28;20038;-81
2021/01/04 01:03:21;;;;;;;9.00;2.65;;;;;;;3.31;83.78;102057.31;4957547;28;20050;-81
2021/01/04 01:06:06;;;;;;;7.57;1.95;;;;;;;3.30;83.68;102063.88;4957946;28;20129;-81
2021/01/04 01:08:36;;;;;;;9.50;4.00;;;;;;;3.32;83.57;102067.16;4977463;28;20050;-80
2021/01/04 01:11:09;;;;;;;7.47;2.47;;;;;;;3.35;83.80;102058.41;4961611;28;20069;-82
2021/01/04 01:13:55;;;;;;;4.75;2.10;;;;;;;3.35;83.68;102059.25;4991396;28;20138;-81
2021/01/04 01:16:34;;;;;;;8.15;1.90;;;;;;;3.37;83.68;102065.28;4941629;28;20256;-82
2021/01/04 01:19:19;;;;;;;10.73;1.95;;;;;;;3.38;83.59;102060.63;4963034;28;20050;-81
2021/01/04 01:21:46;;;;;;;7.38;2.58;;;;;;;3.39;83.46;102056.81;4973812;28;20073;-80
2021/01/04 01:24:13;;;;;;;11.18;1.75;;;;;;;3.41;83.20;102063.66;4956685;28;20045;-82
2021/01/04 01:27:07;;;;;;;6.05;2.00;;;;;;;3.44;83.20;102059.56;4956727;28;20101;-81
2021/01/04 01:29:52;;;;;;;6.38;1.73;;;;;;;3.46;83.45;102062.88;4974943;28;20066;-81
2021/01/04 01:32:50;;;;;;;7.05;2.10;;;;;;;3.45;83.48;102045.59;4941618;28;20112;-81
2021/01/04 01:35:30;;;;;;;8.02;1.85;;;;;;;3.47;83.69;102042.59;4966305;28;20042;-81
2021/01/04 01:38:18;;;;;;;6.10;1.63;;;;;;;3.46;83.61;102050.00;4957260;28;20160;-82
2021/01/04 01:41:03;;;;;;;11.13;1.88;;;;;;;3.47;83.80;102053.53;4957774;28;20129;-81
2021/01/04 01:43:55;;;;;;;10.32;2.40;;;;;;;3.48;83.35;102057.94;4973234;28;20085;-81
2021/01/04 01:46:36;;;;;;;13.40;2.65;;;;;;;3.48;83.48;102064.25;4956919;28;20125;-82
2021/01/04 01:49:20;;;;;;;5.15;2.28;;;;;;;3.47;83.47;102062.59;4951915;28;20126;-81
2021/01/04 01:52:06;;;;;;;8.45;2.05;;;;;;;3.48;83.50;102058.78;4972894;28;20130;-81
2021/01/04 01:55:02;;;;;;;11.52;2.08;;;;;;;3.51;83.91;102060.97;4948811;28;20073;-81
2021/01/04 01:57:47;;;;;;;11.27;2.40;;;;;;;3.55;83.49;102064.81;4948858;28;20408;-81
2021/01/04 02:00:45;;;;;;;7.78;2.03;;;;;;;3.58;83.43;102063.47;4941477;28;20046;-81
2021/01/04 02:03:25;;;;;;;3.95;1.55;;;;;;;3.59;83.81;102067.84;4973481;28;20067;-81
2021/01/04 02:05:59;;;;;;;6.20;1.65;;;;;;;3.63;83.55;102066.22;4953064;28;20082;-82
2021/01/04 02:08:27;;;;;;;10.40;2.03;;;;;;;3.66;83.17;102068.44;4940867;28;20053;-82
2021/01/04 02:10:58;;;;;;;5.60;1.80;;;;;;;3.67;83.45;102072.81;4940455;28;20042;-81
2021/01/04 02:13:34;;;;;;;6.18;1.75;;;;;;;3.70;83.42;102077.78;4972840;28;20050;-81
2021/01/04 02:16:13;;;;;;;9.25;1.85;;;;;;;3.70;83.20;102069.56;4952350;28;20042;-82
2021/01/04 02:18:54;;;;;;;10.38;2.83;;;;;;;3.69;83.32;102074.19;4972651;28;20043;-80
2021/01/04 02:22:11;;;;;;;8.90;1.85;;;;;;;3.69;82.89;102071.47;4956286;28;20043;-81
2021/01/04 02:24:38;;;;;;;4.63;1.50;;;;;;;3.71;83.75;102073.13;4945794;28;20077;-82
2021/01/04 02:27:13;;;;;;;10.13;2.42;;;;;;;3.70;83.03;102069.56;4956612;28;20039;-81
2021/01/04 02:29:39;;;;;;;9.38;1.70;;;;;;;3.70;83.25;102066.81;4956497;28;20046;-81
2021/01/04 02:32:08;;;;;;;3.60;1.52;;;;;;;3.69;83.03;102062.41;4956026;28;20043;-81
2021/01/04 02:34:47;;;;;;;11.32;2.03;;;;;;;3.68;83.21;102071.72;4972025;28;20141;-81
2021/01/04 02:37:14;;;;;;;3.95;1.52;;;;;;;3.66;83.15;102072.00;4972045;28;20098;-81
2021/01/04 02:39:59;;;;;;;7.00;2.13;;;;;;;3.63;82.89;102069.78;4943278;28;20058;-82
2021/01/04 02:42:36;;;;;;;8.70;2.38;;;;;;;3.61;82.82;102068.41;4944600;28;20047;-81
2021/01/04 02:45:30;;;;;;;4.97;2.67;;;;;;;3.63;83.04;102078.00;4941705;28;20158;-82
2021/01/04 02:48:02;;;;;;;10.80;3.38;;;;;;;3.63;82.68;102080.75;4969589;28;20066;-83
2021/01/04 02:50:52;;;;;;;15.13;2.00;;;;;;;3.62;82.67;102072.81;4944441;28;20496;-81
2021/01/04 02:54:00;;;;;;;3.25;1.45;;;;;;;3.64;82.35;102070.63;4964532;28;20043;-82
2021/01/04 02:56:49;;;;;;;8.40;1.52;;;;;;;3.67;82.62;102075.56;4894439;29;20060;-81
2021/01/04 02:59:37;;;;;;;4.15;1.83;;;;;;;3.69;82.22;102084.34;4902519;28;20056;-81
2021/01/04 03:02:17;;;;;;;11.60;2.47;;;;;;;3.69;82.32;102078.84;4939522;28;20047;-80
2021/01/04 03:04:46;;;;;;;3.97;1.30;;;;;;;3.68;82.46;102082.66;4968269;28;20058;-81
2021/01/04 03:07:24;;;;;;;8.90;1.75;;;;;;;3.64;82.36;102073.34;4939782;28;20054;-81
2021/01/04 03:09:53;;;;;;;6.43;1.45;;;;;;;3.60;82.48;102083.22;4955256;28;20047;-81
2021/01/04 03:12:23;;;;;;;6.32;1.77;;;;;;;3.56;81.97;102074.69;4956111;28;20063;-82
2021/01/04 03:14:59;;;;;;;4.97;0.90;;;;;;;3.55;81.61;102083.16;4971242;28;20047;-82
2021/01/04 03:17:29;;;;;;;0.80;0.55;;;;;;;3.53;80.99;102085.34;4971121;28;20069;-82
2021/01/04 03:19:59;;;;;;;4.70;0.90;;;;;;;3.52;81.31;102081.78;4956411;28;20042;-81
2021/01/04 03:22:26;;;;;;;6.55;1.40;;;;;;;3.51;81.05;102076.56;4971227;28;20578;-81
2021/01/04 03:24:53;;;;;;;2.85;1.77;;;;;;;3.52;81.14;102083.72;4955796;28;20456;-82
2021/01/04 03:27:24;;;;;;;7.85;1.38;;;;;;;3.51;81.13;102082.06;4939488;28;20066;-81
2021/01/04 03:29:51;;;;;;;3.90;1.15;;;;;;;3.51;81.00;102082.06;4954825;28;20066;-82
2021/01/04 03:32:18;;;;;;;5.88;1.77;;;;;;;3.51;81.14;102093.00;4974276;28;20492;-82
2021/01/04 03:34:45;;;;;;;6.53;1.58;;;;;;;3.50;81.10;102081.22;4971443;28;20081;-81
2021/01/04 03:37:11;;;;;;;6.97;1.45;;;;;;;3.51;81.36;102082.88;4955492;28;20089;-82
2021/01/04 03:39:37;;;;;;;4.05;1.15;;;;;;;3.51;81.49;102084.78;4939683;28;20043;-81
2021/01/04 03:42:04;;;;;;;4.78;1.23;;;;;;;3.50;81.48;102085.88;4938882;28;20137;-81
2021/01/04 03:44:30;;;;;;;6.18;1.70;;;;;;;3.46;81.68;102090.25;4955260;28;20131;-82
2021/01/04 03:46:59;;;;;;;4.15;1.40;;;;;;;3.44;81.56;102092.44;4971213;28;20066;-82
2021/01/04 03:49:27;;;;;;;4.55;1.40;;;;;;;3.45;81.41;102094.06;4941480;28;20101;-82
2021/01/04 03:51:56;;;;;;;6.32;2.55;;;;;;;3.45;81.17;102088.56;4947420;28;20042;-82
2021/01/04 03:54:24;;;;;;;7.28;1.10;;;;;;;3.43;81.07;102090.75;4959018;28;20129;-81
2021/01/04 03:56:52;;;;;;;4.15;1.20;;;;;;;3.42;81.09;102086.38;4975904;28;20133;-81
2021/01/04 03:59:19;;;;;;;6.60;1.20;;;;;;;3.41;80.74;102082.84;4976417;28;20039;-81
2021/01/04 04:01:52;;;;;;;6.22;1.90;;;;;;;3.43;80.59;102080.66;4957822;28;20039;-81
2021/01/04 04:04:20;;;;;;;7.03;1.60;;;;;;;3.45;81.08;102083.09;4976267;28;20047;-82
2021/01/04 04:06:47;;;;;;;6.80;1.35;;;;;;;3.45;81.04;102072.97;4976441;28;20496;-82
2021/01/04 04:09:16;;;;;;;7.95;1.60;;;;;;;3.44;81.03;102073.25;4975734;28;20102;-82
2021/01/04 04:11:43;;;;;;;4.75;1.50;;;;;;;3.44;81.07;102086.94;4958822;28;20101;-81
2021/01/04 04:14:10;;;;;;;4.93;1.50;;;;;;;3.45;81.24;102083.09;4943302;28;20050;-81
2021/01/04 04:16:37;;;;;;;11.25;1.85;;;;;;;3.48;81.32;102085.31;4967008;28;20089;-81
2021/01/04 04:19:05;;;;;;;7.82;1.75;;;;;;;3.45;80.84;102081.19;4958374;28;20035;-81
2021/01/04 04:21:32;;;;;;;4.75;1.50;;;;;;;3.46;81.20;102088.34;4959031;28;20126;-81
2021/01/04 04:23:58;;;;;;;4.90;1.60;;;;;;;3.45;80.78;102094.06;4958267;28;20064;-81
2021/01/04 04:26:29;;;;;;;7.95;1.80;;;;;;;3.43;80.82;102080.66;4942659;28;20129;-81
2021/01/04 04:28:58;;;;;;;16.25;2.80;;;;;;;3.44;81.35;102085.00;4973411;28;20047;-82
2021/01/04 04:31:25;;;;;;;6.80;2.15;;;;;;;3.43;80.75;102086.13;4958170;28;20097;-81
2021/01/04 04:33:52;;;;;;;6.72;2.92;;;;;;;3.44;80.97;102086.94;4975271;28;20045;-81
2021/01/04 04:36:27;;;;;;;5.28;1.55;;;;;;;3.42;80.81;102084.47;4958365;28;20607;-81
2021/01/04 04:38:53;;;;;;;5.97;1.85;;;;;;;3.44;80.68;102098.69;4945044;28;20049;-81
2021/01/04 04:41:31;;;;;;;5.43;1.33;;;;;;;3.43;80.46;102091.59;4960850;28;20042;-81
2021/01/04 04:44:07;;;;;;;4.30;1.45;;;;;;;3.42;80.17;102087.19;4942780;28;20050;-82
2021/01/04 04:46:42;;;;;;;8.48;1.70;;;;;;;3.40;80.61;102094.03;4954615;29;20043;-82
2021/01/04 04:49:21;;;;;;;3.40;1.30;;;;;;;3.38;80.42;102098.94;4951504;28;20154;-81
2021/01/04 04:52:17;;;;;;;8.32;2.03;;;;;;;3.35;80.35;102091.25;4958008;28;20047;-82
2021/01/04 04:55:02;;;;;;;7.10;1.60;;;;;;;3.29;80.62;102082.19;4942866;28;20096;-82
2021/01/04 04:57:41;;;;;;;11.85;1.60;;;;;;;3.25;80.34;102078.34;4975309;28;20106;-81
2021/01/04 05:00:13;;;;;;;7.18;2.00;;;;;;;3.25;80.02;102083.81;4957220;28;20129;-81
2021/01/04 05:02:58;;;;;;;7.05;1.55;;;;;;;3.24;80.19;102086.81;4941328;28;20035;-82
2021/01/04 05:05:34;;;;;;;4.22;1.20;;;;;;;3.22;80.27;102083.50;4958145;28;20054;-81
2021/01/04 05:08:43;;;;;;;8.77;1.73;;;;;;;3.18;79.99;102096.09;4951396;28;20077;-82
2021/01/04 05:11:10;;;;;;;3.13;1.27;;;;;;;3.16;80.33;102099.06;4945251;28;20104;-81
2021/01/04 05:13:44;;;;;;;4.03;1.00;;;;;;;3.15;80.14;102100.16;4960522;28;20038;-82
2021/01/04 05:16:16;;;;;;;6.20;1.58;;;;;;;3.12;80.44;102108.91;4964720;28;20038;-81
2021/01/04 05:19:01;;;;;;;;;;;;;;;3.10;80.03;102099.31;4975100;28;20038;-82
2021/01/04 05:21:46;;;;;;;9.85;1.83;;;;;;;3.08;80.23;102100.38;4941790;28;19929;-82
2021/01/04 05:24:33;;;;;;;2.60;2.20;;;;;;;3.10;80.48;102113.00;4957994;28;20065;-82
2021/01/04 05:27:23;;;;;;;6.68;2.28;;;;;;;3.10;79.97;102113.00;4941182;28;20046;-81
2021/01/04 05:30:20;;;;;;;14.52;3.10;;;;;;;3.05;79.53;102111.84;4944230;28;20051;-79
2021/01/04 05:32:56;;;;;;;2.55;1.13;;;;;;;3.05;80.31;102116.50;4955075;28;20039;-82
2021/01/04 05:35:22;;;;;;;4.20;1.33;;;;;;;3.07;80.14;102117.88;4957231;28;20059;-82
2021/01/04 05:38:01;;;;;;;7.60;1.58;;;;;;;3.07;80.21;102109.66;4957018;28;20046;-81
2021/01/04 05:40:45;;;;;;;7.22;2.10;;;;;;;3.08;79.80;102119.53;4941017;28;20043;-81
2021/01/04 05:43:17;;;;;;;6.55;1.70;;;;;;;3.10;80.17;102119.25;4957662;28;20078;-81
2021/01/04 05:46:00;;;;;;;5.80;1.23;;;;;;;3.12;80.08;102117.13;4957076;28;20034;-82
2021/01/04 05:48:30;;;;;;;8.52;1.83;;;;;;;3.14;79.94;102114.09;4957173;28;20102;-82
2021/01/04 05:51:26;;;;;;;9.52;1.48;;;;;;;3.17;79.99;102119.06;4959756;28;20038;-81
2021/01/04 05:53:52;;;;;;;3.40;1.30;;;;;;;3.20;80.02;102118.53;4966517;28;20043;-81
2021/01/04 05:56:27;;;;;;;6.05;2.63;;;;;;;3.23;79.97;102120.75;4956407;28;20039;-82
2021/01/04 05:59:07;;;;;;;6.03;1.23;;;;;;;3.28;79.46;102120.78;4956809;28;20106;-81
2021/01/04 06:01:35;;;;;;;9.30;3.03;;;;;;;3.30;79.63;102113.97;4956794;28;20055;-82
2021/01/04 06:04:26;;;;;;;15.27;2.90;;;;;;;3.31;79.54;102114.78;4972801;28;20057;-82
2021/01/04 06:07:05;;;;;;;5.18;1.02;;;;;;;3.29;79.49;102127.88;4957937;28;20049;-81
2021/01/04 06:09:32;;;;;;;5.00;2.03;;;;;;;3.27;79.42;102127.34;4974361;28;20046;-82
2021/01/04 06:12:01;;;;;;;4.05;1.13;;;;;;;3.25;79.47;102126.78;4956268;28;20074;-82
2021/01/04 06:14:35;;;;;;;5.50;1.60;;;;;;;3.24;79.29;102123.22;4940733;28;20546;-82
2021/01/04 06:17:06;;;;;;;9.13;1.15;;;;;;;3.22;79.63;102122.66;4956460;28;20133;-82
2021/01/04 06:19:37;;;;;;;6.57;1.02;;;;;;;3.20;79.40;102118.53;4940493;28;20069;-82
2021/01/04 06:22:18;;;;;;;4.63;0.87;;;;;;;3.19;78.87;102125.09;4978749;28;20530;-82
2021/01/04 06:24:46;;;;;;;6.90;1.35;;;;;;;3.18;79.57;102120.72;4969687;28;20395;-81
2021/01/04 06:27:29;;;;;;;4.03;1.88;;;;;;;3.14;79.45;102125.06;4956061;28;20101;-82
2021/01/04 06:29:56;;;;;;;7.15;1.50;;;;;;;3.10;79.50;102122.00;4957185;28;20133;-81
2021/01/04 06:32:32;;;;;;;2.72;1.05;;;;;;;3.08;79.63;102124.19;4941545;28;20130;-81
2021/01/04 06:35:16;;;;;;;8.38;1.08;;;;;;;3.08;79.13;102130.47;4967273;28;20125;-81
2021/01/04 06:37:43;;;;;;;8.25;1.63;;;;;;;3.10;79.45;102123.94;4949573;28;20069;-82
2021/01/04 06:40:35;;;;;;;6.57;1.40;;;;;;;3.14;78.85;102133.25;4956698;28;20046;-82
2021/01/04 06:43:12;;;;;;;5.53;1.13;;;;;;;3.17;79.19;102125.34;4971405;28;20082;-81
2021/01/04 06:46:13;;;;;;;4.88;1.50;;;;;;;3.15;78.23;102122.03;4940086;28;20181;-82
2021/01/04 06:48:48;;;;;;;1.58;1.15;;;;;;;3.15;79.00;102121.25;4953456;29;20492;-82
2021/01/04 06:51:20;;;;;;;5.22;1.30;;;;;;;3.14;79.01;102130.53;4948289;28;20102;-82
2021/01/04 06:54:46;;;;;;;5.03;1.35;;;;;;;3.12;78.92;102139.00;4973260;28;20065;-82
2021/01/04 06:57:31;;;;;;;;;;;;;;;3.11;78.59;102141.97;4897599;29;20080;-80
2021/01/04 07:00:07;;;;;;;2.63;1.17;;;;;;;3.14;79.43;102144.19;4913723;29;20017;-81
2021/01/04 07:03:11;;;;;;;2.83;1.05;;;;;;;3.18;78.60;102140.66;4963683;28;20055;-81
2021/01/04 07:06:09;;;;;;;4.80;1.40;;;;;;;3.25;78.81;102143.19;4946710;28;20145;-81
2021/01/04 07:08:58;;;;;;;7.57;1.80;;;;;;;3.28;77.92;102142.69;4961441;28;20429;-81
2021/01/04 07:11:36;;;;;;;3.22;0.77;;;;;;;3.31;78.38;102140.22;4973578;28;20125;-82
2021/01/04 07:14:21;;;;;;;5.13;0.75;;;;;;;3.37;78.68;102141.09;4955277;28;20055;-81
2021/01/04 07:17:13;;;;;;;4.57;1.27;;;;;;;3.41;78.89;102147.69;4940281;28;20050;-82
2021/01/04 07:20:01;;;;;;;4.97;1.33;;;;;;;3.44;78.73;102152.66;4939439;28;20118;-81
2021/01/04 07:22:45;;;;;;;3.38;0.77;;;;;;;3.45;78.66;102151.53;4954943;28;20038;-80
2021/01/04 07:25:30;;;;;;;3.83;1.27;;;;;;;3.45;78.41;102148.81;4940256;28;20098;-80
2021/01/04 07:28:08;;;;;;;8.25;1.83;;;;;;;3.46;78.98;102150.47;4971984;28;20046;-81
2021/01/04 07:30:44;;;;;;;8.88;1.35;;;;;;;3.50;78.54;102146.09;4967726;28;20090;-81
2021/01/04 07:33:31;;;;;;;10.88;1.70;;;;;;;3.53;78.52;102151.06;4971811;28;20127;-82
2021/01/04 07:36:08;;;;;;;11.15;1.63;;;;;;;3.57;78.67;102157.66;4939705;28;20487;-81
2021/01/04 07:38:42;;;;;;;7.72;1.58;;;;;;;3.60;78.59;102148.94;4955655;28;20046;-80
2021/01/04 07:41:31;;;;;;;4.95;0.98;;;;;;;3.60;78.42;102157.16;4955599;28;20050;-82
2021/01/04 07:44:18;;;;;;;6.32;0.93;;;;;;;3.62;78.73;102155.78;4972341;28;20141;-81
2021/01/04 07:47:12;;;;;;;9.07;1.58;;;;;;;3.65;78.40;102157.16;4952970;28;20097;-82
2021/01/04 07:49:42;;;;;;;7.18;1.48;;;;;;;3.67;78.71;102154.97;4974800;28;20045;-82
2021/01/04 07:52:39;;;;;;;6.22;1.75;;;;;;;3.69;78.41;102155.53;4953854;28;20063;-82
2021/01/04 07:55:27;;;;;;;3.03;0.93;;;;;;;3.73;78.41;102151.19;4947586;28;20066;-81
2021/01/04 07:58:08;;;;;;;3.30;0.73;;;;;;;3.77;78.55;102156.94;4972726;28;20043;-81
2021/01/04 08:01:05;;;;;;;5.25;1.00;;;;;;;3.79;78.65;102155.59;4954805;28;20071;-82
2021/01/04 08:03:50;;;;;;;6.05;1.20;;;;;;;3.82;78.49;102160.53;4958787;28;20134;-81
2021/01/04 08:06:29;;;;;;;6.63;1.15;;;;;;;3.84;78.78;102158.34;4969417;28;20082;-81
2021/01/04 08:09:04;;;;;;;4.38;1.20;;;;;;;3.84;78.94;102161.09;4957541;28;20066;-81
2021/01/04 08:11:49;;;;;;;2.75;0.98;;;;;;;3.84;78.70;102163.03;4931316;28;20542;-81
2021/01/04 08:14:34;;;;;;;1.70;0.98;;;;;;;3.87;78.40;102163.31;4935812;28;20047;-80
2021/01/04 08:17:18;;;;;;;4.97;1.15;;;;;;;3.90;78.45;102173.72;4938902;28;20106;-80
2021/01/04 08:19:45;;;;;;;1.98;0.68;;;;;;;3.90;78.82;102167.44;4929813;28;20142;-81
2021/01/04 08:22:37;;;;;;;5.03;0.90;;;;;;;3.90;78.33;102168.25;4972181;28;20042;-81
2021/01/04 08:25:11;;;;;;;3.55;1.08;;;;;;;3.92;78.39;102182.50;4955607;28;20042;-81
2021/01/04 08:27:58;;;;;;;5.32;1.20;;;;;;;3.93;77.86;102178.69;4971286;28;20049;-80
2021/01/04 08:30:33;;;;;;;7.35;1.40;;;;;;;3.94;78.50;102190.47;4970262;28;20047;-81
2021/01/04 08:33:11;;;;;;;10.27;2.83;;;;;;;3.93;78.19;102184.16;4949581;28;20065;-81
2021/01/04 08:35:43;;;;;;;6.30;1.02;;;;;;;3.94;78.48;102185.00;4950049;28;20038;-81
2021/01/04 08:38:32;;;;;;;8.48;1.80;;;;;;;3.96;78.07;102194.59;4957623;28;20046;-81
2021/01/04 08:41:08;;;;;;;2.72;0.98;;;;;;;3.97;78.64;102190.75;4973602;28;20540;-81
2021/01/04 08:43:43;;;;;;;8.05;1.23;;;;;;;3.98;78.63;102184.19;4953126;28;20044;-81
2021/01/04 08:46:21;;;;;;;6.90;1.33;;;;;;;3.99;77.73;102207.78;4921699;29;20062;-80
2021/01/04 08:48:50;;;;;;;4.05;0.70;;;;;;;4.00;78.42;102203.91;4953722;29;20050;-81
2021/01/04 08:51:39;;;;;;;6.38;1.10;;;;;;;4.01;77.63;102197.38;4980248;28;20125;-82
2021/01/04 08:54:20;;;;;;;2.17;1.02;;;;;;;4.02;77.78;102204.50;4972848;28;20038;-81
2021/01/04 08:56:51;;;;;;;3.58;1.13;;;;;;;4.04;77.96;102213.28;4992917;28;20088;-81
2021/01/04 08:59:21;;;;;;;;;;;;;;;4.02;77.96;102215.47;4971941;28;20458;-82
2021/01/04 09:01:56;;;;;;;8.10;0.90;;;;;;;4.05;77.95;102214.09;4971007;28;19925;-80
2021/01/04 09:04:43;;;;;;;9.35;1.40;;;;;;;4.07;78.09;102217.41;4972324;28;20057;-80
2021/01/04 09:07:15;;;;;;;6.57;1.02;;;;;;;4.10;78.13;102211.38;4972126;28;20045;-81
2021/01/04 09:09:44;;;;;;;7.68;1.75;;;;;;;4.12;78.33;102220.16;4972117;28;20768;-82
2021/01/04 09:12:24;;;;;;;3.53;1.30;;;;;;;4.13;78.19;102216.34;4956546;28;20043;-80
2021/01/04 09:15:04;;;;;;;3.42;0.85;;;;;;;4.15;77.83;102216.91;4971765;28;20062;-80
2021/01/04 09:18:04;;;;;;;4.88;1.10;;;;;;;4.15;77.92;102212.25;4947448;28;20507;-80
2021/01/04 09:20:43;;;;;;;4.82;1.15;;;;;;;4.16;77.95;102211.13;4954279;28;20074;-80
2021/01/04 09:23:35;;;;;;;6.80;2.13;;;;;;;4.19;77.68;102218.81;4969131;28;20047;-82
2021/01/04 09:26:03;;;;;;;8.35;1.38;;;;;;;4.22;78.21;102201.84;4971513;28;20069;-82
2021/01/04 09:28:36;;;;;;;9.52;1.23;;;;;;;4.23;78.02;102221.88;4951097;28;20054;-81
2021/01/04 09:31:03;;;;;;;5.05;1.15;;;;;;;4.23;78.06;102217.22;4940356;28;20054;-82
2021/01/04 09:33:29;;;;;;;16.17;1.77;;;;;;;4.24;77.76;102207.88;4955231;28;20077;-82
2021/01/04 09:36:04;;;;;;;4.63;1.48;;;;;;;4.26;78.00;102221.34;4973005;28;20380;-81
2021/01/04 09:38:45;;;;;;;3.50;1.30;;;;;;;4.25;77.67;102226.00;4943943;28;20061;-82
2021/01/04 09:41:12;;;;;;;4.57;1.17;;;;;;;4.27;77.87;102212.84;4952777;28;20523;-83
2021/01/04 09:43:40;;;;;;;8.93;1.33;;;;;;;4.30;77.85;102217.78;4956139;28;20130;-82
2021/01/04 09:46:21;;;;;;;4.65;1.73;;;;;;;4.35;77.78;102218.88;4956094;28;20834;-82
2021/01/04 09:49:04;;;;;;;9.50;1.23;;;;;;;4.36;77.77;102215.06;4939335;28;20497;-83
2021/01/04 09:51:39;;;;;;;5.82;1.40;;;;;;;4.36;77.84;102223.28;4954654;28;20035;-81
2021/01/04 09:54:12;;;;;;;6.55;1.60;;;;;;;4.35;77.78;102230.69;4952792;29;20406;-83
2021/01/04 09:56:39;;;;;;;;;;;;;;;4.31;77.36;102224.91;4953542;29;20047;-81
2021/01/04 09:59:18;;;;;;;5.35;1.10;;;;;;;4.32;77.95;102236.69;4954330;28;20020;-80
2021/01/04 10:01:48;;;;;;;5.88;1.73;;;;;;;4.31;77.66;102235.88;4949610;28;20137;-82
2021/01/04 10:04:39;;;;;;;7.03;1.30;;;;;;;4.30;77.19;102234.25;4954663;28;20046;-82
2021/01/04 10:07:09;;;;;;;7.45;1.02;;;;;;;4.31;77.66;102235.88;4948273;28;20055;-82
2021/01/04 10:09:39;;;;;;;4.15;1.25;;;;;;;4.32;77.46;102243.00;4969502;28;20043;-81
2021/01/04 10:12:07;;;;;;;6.93;1.15;;;;;;;4.35;77.39;102244.41;4963265;28;20086;-82
2021/01/04 10:14:34;;;;;;;8.25;2.05;;;;;;;4.39;77.24;102251.00;4955904;28;20047;-83
2021/01/04 10:17:02;;;;;;;4.78;1.55;;;;;;;4.42;77.39;102241.41;4954626;28;20070;-81
2021/01/04 10:19:38;;;;;;;3.78;1.17;;;;;;;4.44;77.19;102247.44;4955825;28;20034;-82
2021/01/04 10:22:13;;;;;;;3.47;0.85;;;;;;;4.46;76.86;102248.84;4935691;29;20050;-82
2021/01/04 10:24:46;;;;;;;4.00;1.33;;;;;;;4.46;75.84;102237.03;4919856;29;20058;-82
2021/01/04 10:27:21;;;;;;;;;;;;;;;4.48;75.90;102246.66;4955803;28;20055;-81
2021/01/04 10:30:06;;;;;;;3.42;1.23;;;;;;;4.49;76.36;102252.97;4954522;28;19937;-82
2021/01/04 10:32:38;;;;;;;7.22;1.25;;;;;;;4.49;76.96;102247.47;4954185;28;20125;-81
2021/01/04 10:35:05;;;;;;;;;;;;;;;4.47;76.54;102249.66;4946711;28;20051;-81
2021/01/04 10:37:37;;;;;;;5.60;1.73;;;;;;;4.44;76.81;102253.78;4938462;28;20029;-81
2021/01/04 10:40:10;;;;;;;8.65;2.47;;;;;;;4.42;76.77;102252.38;4970737;28;20039;-81
2021/01/04 10:42:39;;;;;;;11.40;3.15;;;;;;;4.41;77.22;102247.97;4954547;28;20058;-81
2021/01/04 10:45:13;;;;;;;9.10;3.03;;;;;;;4.41;76.69;102245.25;4955207;28;20039;-81
2021/01/04 10:47:48;;;;;;;12.52;4.50;;;;;;;4.44;76.92;102255.69;4937528;28;20043;-82
2021/01/04 10:50:21;;;;;;;15.05;4.20;;;;;;;4.47;76.24;102250.50;4953584;28;20130;-81
2021/01/04 10:53:03;;;;;;;11.70;4.18;;;;;;;4.50;76.46;102254.63;4975562;28;20046;-81
2021/01/04 10:55:31;;;;;;;14.88;4.38;;;;;;;4.53;76.48;102245.81;4963016;28;20129;-82
2021/01/04 10:58:14;;;;;;;7.68;2.45;;;;;;;4.51;75.72;102245.28;4962101;28;20065;-81
2021/01/04 11:00:50;;;;;;;7.85;1.70;;;;;;;4.49;76.06;102242.81;4950680;29;20102;-81
2021/01/04 11:03:17;;;;;;;6.47;1.20;;;;;;;4.48;76.37;102245.81;4940214;28;20043;-81
2021/01/04 11:05:49;;;;;;;6.45;1.67;;;;;;;4.47;76.08;102255.16;4934670;28;20090;-81
2021/01/04 11:08:28;;;;;;;3.53;2.00;;;;;;;4.49;75.87;102247.47;4949111;29;20492;-81
2021/01/04 11:11:35;;;;;;;6.65;1.10;;;;;;;4.52;75.88;102258.75;4918386;29;20125;-81
2021/01/04 11:14:12;;;;;;;2.33;0.90;;;;;;;4.41;76.33;102275.41;4949732;29;20151;-81
2021/01/04 11:16:50;;;;;;;4.63;0.68;;;;;;;4.19;76.48;102303.78;4952606;29;20040;-83
2021/01/04 11:19:33;;;;;;;1.73;0.65;;;;;;;3.82;77.89;102275.59;4934264;29;20039;-83
2021/01/04 11:22:17;;;;;;;3.15;0.88;;;;;;;3.64;78.24;102273.25;4938570;28;20129;-82
2021/01/04 11:24:44;;;;;;;2.67;1.00;;;;;;;3.61;78.18;102269.13;4951247;28;20050;-82
2021/01/04 11:27:11;;;;;;;5.18;1.05;;;;;;;3.63;78.27;102266.13;4936120;29;20095;-82
2021/01/04 11:29:39;;;;;;;6.07;2.00;;;;;;;3.63;78.91;102266.13;4951630;29;20774;-82
2021/01/04 11:32:07;;;;;;;4.35;1.50;;;;;;;3.64;79.04;102268.63;4947299;29;20043;-82
2021/01/04 11:34:42;;;;;;;6.05;1.40;;;;;;;3.64;79.33;102265.88;4947941;29;20047;-81
2021/01/04 11:37:09;;;;;;;3.72;1.45;;;;;;;3.62;79.16;102270.81;4933693;29;20493;-80
2021/01/04 11:39:36;;;;;;;7.57;1.52;;;;;;;3.61;79.75;102282.84;4934004;29;20095;-82
2021/01/04 11:42:04;;;;;;;7.70;1.45;;;;;;;3.58;80.43;102271.56;4950322;29;20345;-81
2021/01/04 11:44:30;;;;;;;1.83;0.60;;;;;;;3.58;80.11;102263.34;4942048;29;20071;-81
2021/01/04 11:46:57;;;;;;;1.40;0.75;;;;;;;3.55;80.42;102250.19;4951657;29;20480;-82
2021/01/04 11:49:24;;;;;;;1.20;1.10;;;;;;;3.51;80.65;102247.16;4934516;28;20138;-82
2021/01/04 11:51:54;;;;;;;2.25;0.70;;;;;;;3.50;80.47;102250.97;4927831;29;20388;-81
2021/01/04 11:54:21;;;;;;;2.05;1.25;;;;;;;3.49;80.48;102243.03;4955050;28;20070;-84
2021/01/04 11:56:48;;;;;;;2.58;1.00;;;;;;;3.46;81.00;102241.66;4936961;29;20095;-84
2021/01/04 11:59:16;;;;;;;2.80;1.30;;;;;;;3.45;81.12;102253.66;4953573;29;20079;-84
2021/01/04 12:01:44;;;;;;;5.18;1.30;;;;;;;3.46;81.30;102251.75;4953136;29;20502;-84
2021/01/04 12:04:11;;;;;;;4.00;1.02;;;;;;;3.45;81.54;102250.94;4937020;28;20464;-83
2021/01/04 12:06:38;;;;;;;5.70;2.25;;;;;;;3.48;81.79;102263.28;4971174;28;20461;-84
2021/01/04 12:09:09;;;;;;;2.83;0.80;;;;;;;3.45;80.67;102263.78;4955735;28;20138;-84
2021/01/04 12:11:38;;;;;;;1.45;0.70;;;;;;;3.41;80.19;102241.59;4944806;28;20068;-82
2021/01/04 12:14:06;;;;;;;1.60;0.43;;;;;;;3.41;80.64;102240.78;4958862;28;20479;-82
2021/01/04 12:16:34;;;;;;;1.92;0.70;;;;;;;3.44;80.68;102223.81;4958678;28;20406;-85
2021/01/04 12:19:01;;;;;;;1.85;0.70;;;;;;;3.47;80.33;102226.84;4943260;28;20580;-91
2021/01/04 12:21:28;;;;;;;3.92;1.10;;;;;;;3.53;80.44;102222.25;4973605;28;20066;-83